Terminal Aerodrome Forecast
Issued by NWS

Home | Current Version | Previous Version | Text Only | Print | Product List | Glossary On
Versions: 1 2 3 4 5 6 7 8 9 10 11 12 13 14 15 16 17 18 19
362
FTUS43 KBIS 081720
TAFJMS
TAF
KJMS 081720Z 0818/0918 34024G31KT P6SM BKN025
     FM081900 34023G32KT P6SM BKN060
     FM090000 33015G23KT P6SM BKN150
     FM090400 34009KT P6SM BKN150=

USA.gov is the U.S. government's official web portal to all federal, state and local government web resources and services.